Time;durP1;ratioP1;P1;durP2;ratioP2;P2;SDS_P1;SDS_P2;PMS_P1;PMS_P2;Temp;Humidity;BMP_temperature;BMP_pressure;BME280_temperature;BME280_humidity;BME280_pressure;Samples;Min_cycle;Max_cycle;Signal;HPM_P1;HPM_P2
2021/05/02 00:01:37;;;;;;;13.88;11.13;;;;;;;15.68;93.74;99468.66;5092195;28;20047;-74
2021/05/02 00:04:42;;;;;;;13.43;11.40;;;;;;;15.57;94.35;99476.22;5091989;28;20047;-75
2021/05/02 00:07:48;;;;;;;13.80;12.07;;;;;;;15.54;94.53;99473.03;5089511;28;20043;-76
2021/05/02 00:10:52;;;;;;;15.52;13.73;;;;;;;15.46;94.88;99490.19;5090885;28;20051;-76
2021/05/02 00:13:57;;;;;;;14.63;12.90;;;;;;;15.35;95.14;99493.34;5092045;28;20043;-75
2021/05/02 00:17:02;;;;;;;15.07;13.02;;;;;;;15.37;95.43;99498.56;5092114;28;20051;-74
2021/05/02 00:20:09;;;;;;;14.82;13.43;;;;;;;15.40;95.95;99506.28;5093199;28;20434;-75
2021/05/02 00:23:14;;;;;;;15.02;12.25;;;;;;;15.49;95.61;99506.06;5091299;28;20055;-75
2021/05/02 00:26:18;;;;;;;13.93;12.55;;;;;;;15.46;95.66;99502.88;5091943;28;20043;-75
2021/05/02 00:29:23;;;;;;;14.10;12.65;;;;;;;15.46;95.66;99497.47;5089248;28;20486;-74
2021/05/02 00:32:29;;;;;;;14.40;12.95;;;;;;;15.46;95.91;99483.94;5088552;28;20051;-75
2021/05/02 00:35:34;;;;;;;13.73;12.32;;;;;;;15.39;95.70;99489.22;5091590;28;20051;-75
2021/05/02 00:38:41;;;;;;;17.92;12.73;;;;;;;15.27;95.29;99487.16;5088438;28;20055;-75
2021/05/02 00:41:48;;;;;;;17.73;13.32;;;;;;;15.22;95.72;99490.44;5092700;28;20051;-74
2021/05/02 00:45:05;;;;;;;14.20;12.80;;;;;;;15.14;95.77;99478.84;5091317;28;20062;-74
2021/05/02 00:48:17;;;;;;;14.13;12.73;;;;;;;15.13;95.62;99493.41;5090595;28;20043;-74
2021/05/02 00:51:22;;;;;;;14.18;12.68;;;;;;;15.09;95.70;99492.94;5092152;28;20047;-75
2021/05/02 00:54:35;;;;;;;10.93;7.38;;;;;;;14.94;91.96;99503.72;5090682;28;20063;-76
2021/05/02 00:58:00;;;;;;;9.48;6.60;;;;;;;14.90;88.99;99499.72;5090979;28;20063;-75
2021/05/02 01:01:05;;;;;;;7.85;5.50;;;;;;;14.86;87.80;99492.16;5092407;28;20059;-75
2021/05/02 01:04:11;;;;;;;8.63;4.90;;;;;;;14.88;86.46;99492.81;5090206;28;20043;-76
2021/05/02 01:07:21;;;;;;;8.98;4.22;;;;;;;14.88;83.75;99493.66;5089762;28;20047;-76
2021/05/02 01:10:27;;;;;;;6.20;3.40;;;;;;;14.80;82.86;99488.31;5092863;28;20039;-75
2021/05/02 01:13:36;;;;;;;14.10;4.20;;;;;;;14.72;83.09;99491.09;5089764;28;20506;-76
2021/05/02 01:16:44;;;;;;;6.55;3.33;;;;;;;14.73;83.09;99498.19;5091913;28;20051;-75
2021/05/02 01:19:48;;;;;;;6.70;2.85;;;;;;;14.63;84.42;99494.88;5092907;28;20047;-76
2021/05/02 01:23:16;;;;;;;5.88;2.67;;;;;;;14.66;84.30;99490.97;5094500;28;20395;-76
2021/05/02 01:26:22;;;;;;;4.78;2.40;;;;;;;14.70;84.37;99492.28;5102517;28;20399;-73
2021/05/02 01:29:27;;;;;;;4.85;2.42;;;;;;;14.71;84.40;99497.53;5095542;28;20051;-73
2021/05/02 01:32:32;;;;;;;7.13;2.08;;;;;;;14.75;84.41;99503.38;5090803;28;20047;-73
2021/05/02 01:35:36;;;;;;;5.55;3.10;;;;;;;14.76;83.50;99503.19;5096525;28;20126;-73
2021/05/02 01:38:42;;;;;;;6.55;3.80;;;;;;;14.84;84.02;99495.03;5095632;28;20392;-75
2021/05/02 01:41:46;;;;;;;7.97;3.20;;;;;;;14.90;84.32;99491.59;5095266;28;20047;-76
2021/05/02 01:44:51;;;;;;;8.18;3.40;;;;;;;14.92;84.94;99499.50;5096269;28;20050;-73
2021/05/02 01:48:02;;;;;;;7.13;3.25;;;;;;;14.82;86.78;99496.22;5093809;28;20391;-76
2021/05/02 01:51:09;;;;;;;7.40;3.70;;;;;;;14.55;87.76;99491.41;5095100;28;20047;-76
2021/05/02 01:54:14;;;;;;;7.32;4.07;;;;;;;14.56;87.68;99496.63;5080205;28;20051;-74
2021/05/02 01:57:27;;;;;;;8.68;4.03;;;;;;;14.61;87.85;99496.94;5094738;28;20047;-74
2021/05/02 02:00:43;;;;;;;6.07;2.80;;;;;;;14.38;86.29;99488.00;5093075;28;20039;-75
2021/05/02 02:03:47;;;;;;;6.55;2.95;;;;;;;14.42;86.65;99485.78;5094895;28;20043;-74
2021/05/02 02:06:53;;;;;;;6.75;3.40;;;;;;;14.46;87.30;99485.22;5095968;28;20402;-74
2021/05/02 02:09:57;;;;;;;8.70;4.25;;;;;;;14.50;88.22;99485.69;5094315;28;20047;-73
2021/05/02 02:13:02;;;;;;;4.72;3.47;;;;;;;14.60;88.13;99481.72;5094128;28;20054;-75
2021/05/02 02:16:08;;;;;;;7.43;3.78;;;;;;;14.54;88.26;99487.84;5095477;28;20043;-74
2021/05/02 02:19:19;;;;;;;7.78;3.83;;;;;;;14.60;89.04;99475.50;5095948;28;20066;-73
2021/05/02 02:22:24;;;;;;;6.65;4.00;;;;;;;14.58;88.68;99489.19;5094853;28;20402;-75
2021/05/02 02:25:33;;;;;;;5.53;3.80;;;;;;;14.53;89.39;99486.19;5095598;28;20039;-73
2021/05/02 02:28:38;;;;;;;5.45;2.90;;;;;;;14.53;88.62;99475.38;5095546;28;20039;-74
2021/05/02 02:31:45;;;;;;;5.63;3.45;;;;;;;14.56;87.45;99476.88;5094570;28;20102;-74
2021/05/02 02:34:54;;;;;;;7.93;4.13;;;;;;;14.60;88.70;99484.44;5092338;28;20063;-73
2021/05/02 02:37:59;;;;;;;5.18;4.13;;;;;;;14.56;88.86;99495.78;5093861;28;20047;-76
2021/05/02 02:41:05;;;;;;;5.50;3.83;;;;;;;14.48;90.63;99488.59;5094281;28;20051;-76
2021/05/02 02:44:11;;;;;;;5.20;3.72;;;;;;;14.46;91.04;99508.69;5095188;28;20055;-74
2021/05/02 02:47:19;;;;;;;6.82;4.00;;;;;;;14.44;91.12;99503.47;5095257;28;20047;-73
2021/05/02 02:50:23;;;;;;;6.65;3.65;;;;;;;14.52;90.89;99514.19;5094270;28;20051;-74
2021/05/02 02:53:32;;;;;;;9.15;3.30;;;;;;;14.48;90.57;99510.19;5094991;28;20047;-75
2021/05/02 02:56:41;;;;;;;6.40;2.97;;;;;;;14.41;89.91;99479.53;5092756;28;20051;-76
2021/05/02 02:59:47;;;;;;;6.50;2.65;;;;;;;14.48;87.51;99509.34;5094288;28;20407;-76
2021/05/02 03:03:16;;;;;;;5.22;2.42;;;;;;;14.43;87.40;99509.88;5091305;28;20059;-75
2021/05/02 03:06:26;;;;;;;7.45;2.97;;;;;;;14.47;88.66;99507.69;5099471;28;20047;-76
2021/05/02 03:09:31;;;;;;;7.78;3.13;;;;;;;14.44;89.25;99510.75;5076140;28;20051;-75
2021/05/02 03:12:38;;;;;;;12.48;2.63;;;;;;;14.37;89.03;99512.47;5093933;28;20051;-76
2021/05/02 03:15:43;;;;;;;5.57;2.60;;;;;;;14.45;88.34;99498.91;5093452;28;20058;-77
2021/05/02 03:18:59;;;;;;;5.95;2.00;;;;;;;14.41;87.65;99514.63;5094427;28;20051;-76
2021/05/02 03:22:07;;;;;;;5.75;2.03;;;;;;;14.39;86.32;99516.69;5094242;28;20039;-77
2021/05/02 03:25:13;;;;;;;6.40;1.55;;;;;;;14.49;84.89;99509.19;5091031;28;20059;-76
2021/05/02 03:28:22;;;;;;;4.90;1.30;;;;;;;14.44;85.28;99529.63;5092641;28;20051;-76
2021/05/02 03:31:32;;;;;;;5.40;1.23;;;;;;;14.46;84.56;99533.00;5093707;28;20505;-74
2021/05/02 03:34:40;;;;;;;3.55;1.33;;;;;;;14.45;85.52;99529.44;5094104;28;20402;-75
2021/05/02 03:38:22;;;;;;;4.15;1.20;;;;;;;14.40;85.05;99534.53;5093561;28;20051;-76
2021/05/02 03:41:27;;;;;;;9.48;1.20;;;;;;;14.33;85.29;99538.97;5073227;28;20391;-76
2021/05/02 03:44:31;;;;;;;5.03;1.23;;;;;;;14.25;85.23;99541.69;5069676;28;20099;-77
2021/05/02 03:47:35;;;;;;;9.38;1.20;;;;;;;14.28;85.32;99555.69;5073801;28;20047;-77
2021/05/02 03:50:40;;;;;;;6.63;2.53;;;;;;;14.28;85.15;99562.94;5072387;28;20498;-77
2021/05/02 03:53:44;;;;;;;13.80;10.13;;;;;;;14.33;85.56;99574.06;5072009;28;20068;-76
2021/05/02 03:56:48;;;;;;;8.43;4.93;;;;;;;14.32;85.73;99583.19;5073327;28;20494;-76
2021/05/02 03:59:53;;;;;;;6.93;2.40;;;;;;;14.31;84.98;99576.13;5073576;28;20055;-75
2021/05/02 04:02:57;;;;;;;3.90;1.95;;;;;;;14.34;84.71;99587.38;5070887;28;20063;-77
2021/05/02 04:06:01;;;;;;;4.80;2.38;;;;;;;14.27;85.46;99578.28;5073319;28;20059;-76
2021/05/02 04:09:11;;;;;;;8.90;2.60;;;;;;;14.22;86.17;99594.16;5072767;28;20048;-76
2021/05/02 04:12:16;;;;;;;6.47;3.00;;;;;;;14.12;86.93;99598.13;5070721;28;20056;-76
2021/05/02 04:15:20;;;;;;;6.55;3.13;;;;;;;14.13;88.01;99614.13;5071773;28;20059;-76
2021/05/02 04:18:31;;;;;;;5.75;3.60;;;;;;;14.12;88.29;99608.91;5072300;28;20051;-76
2021/05/02 04:21:37;;;;;;;5.65;3.33;;;;;;;14.18;88.53;99608.19;5071083;28;20044;-74
2021/05/02 04:24:43;;;;;;;5.43;3.70;;;;;;;14.19;89.58;99612.59;5071108;28;20048;-77
2021/05/02 04:27:47;;;;;;;9.02;4.85;;;;;;;14.22;89.97;99610.38;5072847;28;20051;-74
2021/05/02 04:30:51;;;;;;;9.02;4.80;;;;;;;14.46;89.26;99614.00;5069695;28;20039;-74
2021/05/02 04:33:56;;;;;;;9.95;4.60;;;;;;;14.61;87.74;99617.63;5070345;28;20514;-74
2021/05/02 04:37:00;;;;;;;7.03;4.65;;;;;;;14.57;88.03;99633.34;5073308;28;20039;-76
2021/05/02 04:40:05;;;;;;;10.02;5.05;;;;;;;14.58;87.66;99636.88;5072039;28;20048;-76
2021/05/02 04:43:11;;;;;;;7.00;5.13;;;;;;;14.65;87.95;99640.56;5072964;28;20486;-77
2021/05/02 04:46:15;;;;;;;10.30;5.72;;;;;;;14.94;86.98;99652.34;5070870;28;20052;-77
2021/05/02 04:49:21;;;;;;;8.70;4.63;;;;;;;15.28;85.73;99659.19;5070636;28;20486;-77
2021/05/02 04:52:26;;;;;;;8.52;5.43;;;;;;;15.43;84.47;99662.81;5072902;28;20055;-75
2021/05/02 04:55:30;;;;;;;9.05;5.95;;;;;;;16.03;82.66;99671.69;5070211;28;20438;-75
2021/05/02 04:58:35;;;;;;;8.48;6.45;;;;;;;16.92;79.08;99678.69;5076647;28;20055;-76
2021/05/02 05:01:42;;;;;;;8.75;4.80;;;;;;;17.96;72.95;99678.00;5076922;28;20048;-74
2021/05/02 05:04:46;;;;;;;10.80;4.72;;;;;;;18.09;71.45;99681.66;5076273;28;20063;-76
2021/05/02 05:07:50;;;;;;;7.75;4.00;;;;;;;18.82;68.69;99683.72;5076754;28;20048;-75
2021/05/02 05:10:55;;;;;;;4.97;3.60;;;;;;;19.60;66.37;99686.84;5074533;28;20047;-75
2021/05/02 05:13:59;;;;;;;8.38;3.95;;;;;;;20.33;62.56;99683.00;5075172;28;20051;-76
2021/05/02 05:17:03;;;;;;;8.95;3.42;;;;;;;21.18;59.53;99690.88;5075651;28;20051;-76
2021/05/02 05:20:08;;;;;;;6.75;3.28;;;;;;;21.82;56.68;99682.44;5076351;28;20506;-76
2021/05/02 05:23:12;;;;;;;9.07;4.10;;;;;;;22.40;55.30;99682.91;5073982;28;20056;-75
2021/05/02 05:26:17;;;;;;;5.38;3.92;;;;;;;22.68;54.32;99677.78;5074626;28;20044;-77
2021/05/02 05:29:21;;;;;;;6.28;5.05;;;;;;;23.57;51.55;99675.09;5075169;28;20056;-76
2021/05/02 05:32:26;;;;;;;6.32;4.55;;;;;;;24.38;49.85;99691.63;5075829;28;20056;-75
2021/05/02 05:35:31;;;;;;;5.97;4.47;;;;;;;25.01;47.85;99693.53;5075412;28;20526;-75
2021/05/02 05:38:35;;;;;;;5.78;3.92;;;;;;;25.02;47.32;99686.97;5076241;28;20048;-74
2021/05/02 05:41:40;;;;;;;6.10;4.20;;;;;;;24.91;48.37;99696.91;5073974;28;20047;-77
2021/05/02 05:44:44;;;;;;;6.10;3.85;;;;;;;25.49;48.21;99701.34;5076967;28;20055;-78
2021/05/02 05:47:51;;;;;;;7.00;4.93;;;;;;;25.65;46.82;99697.81;5076714;28;20043;-76
2021/05/02 05:50:55;;;;;;;7.78;4.70;;;;;;;25.39;46.91;99704.72;5076096;28;20115;-77
2021/05/02 05:54:00;;;;;;;9.10;3.80;;;;;;;25.55;46.43;99708.63;5075458;28;20052;-76
2021/05/02 05:57:05;;;;;;;5.68;4.18;;;;;;;25.82;45.85;99704.16;5075969;28;20047;-78
2021/05/02 06:00:10;;;;;;;6.68;4.63;;;;;;;26.94;43.45;99711.09;5053063;28;20043;-76
2021/05/02 06:03:17;;;;;;;6.45;3.65;;;;;;;27.87;40.52;99715.44;5076636;28;20376;-78
2021/05/02 06:06:22;;;;;;;5.13;3.25;;;;;;;29.56;37.18;99703.97;5074351;28;20048;-75
2021/05/02 06:09:26;;;;;;;5.65;3.83;;;;;;;30.61;36.17;99714.25;5081065;28;20067;-76
2021/05/02 06:12:31;;;;;;;6.35;3.55;;;;;;;31.09;35.48;99722.94;5076409;28;20052;-78
2021/05/02 06:15:35;;;;;;;5.50;4.05;;;;;;;30.61;35.86;99716.19;5076579;28;20419;-79
2021/05/02 06:18:39;;;;;;;4.50;3.50;;;;;;;31.50;34.18;99721.69;5076475;28;20052;-78
2021/05/02 06:21:44;;;;;;;6.30;3.90;;;;;;;31.36;33.50;99726.97;5073724;28;20064;-84
2021/05/02 06:24:48;;;;;;;5.93;3.80;;;;;;;33.69;30.75;99723.63;5055519;28;20060;-75
2021/05/02 06:27:53;;;;;;;6.00;3.50;;;;;;;34.49;29.67;99720.63;5062563;28;20039;-76
2021/05/02 06:30:57;;;;;;;3.83;3.38;;;;;;;34.96;28.82;99731.41;5074170;28;20044;-77
2021/05/02 06:34:02;;;;;;;4.70;3.45;;;;;;;35.28;28.72;99733.31;5071531;28;20048;-77
2021/05/02 06:37:06;;;;;;;5.90;3.50;;;;;;;35.16;28.56;99732.97;5076158;28;20511;-74
2021/05/02 06:40:11;;;;;;;4.20;3.30;;;;;;;36.23;27.00;99738.63;5075285;28;20059;-75
2021/05/02 06:43:15;;;;;;;5.43;2.63;;;;;;;36.41;25.90;99734.81;5075928;28;20063;-76
2021/05/02 06:46:30;;;;;;;5.50;2.75;;;;;;;36.63;26.61;99741.53;5075990;28;20051;-76
2021/05/02 06:49:35;;;;;;;4.13;2.55;;;;;;;37.90;25.07;99742.28;5075921;28;20059;-76
2021/05/02 06:52:39;;;;;;;4.25;1.98;;;;;;;39.09;22.53;99754.41;5075899;28;20066;-76
2021/05/02 06:55:44;;;;;;;6.90;1.88;;;;;;;38.39;23.91;99758.59;5076073;28;20067;-76
2021/05/02 06:58:50;;;;;;;5.65;1.80;;;;;;;39.65;22.73;99754.78;5075708;28;20056;-76
2021/05/02 07:01:54;;;;;;;5.57;1.33;;;;;;;40.63;21.42;99761.72;5075901;28;20478;-76
2021/05/02 07:04:58;;;;;;;3.53;1.10;;;;;;;41.06;20.25;99766.88;5075482;28;20047;-75
2021/05/02 07:08:03;;;;;;;6.47;4.07;;;;;;;41.59;19.82;99765.81;5075491;28;20052;-76
2021/05/02 07:11:09;;;;;;;9.60;8.00;;;;;;;42.30;19.33;99777.28;5074642;28;20043;-77
2021/05/02 07:14:13;;;;;;;6.07;5.00;;;;;;;43.08;18.44;99771.81;5074555;28;20071;-74
2021/05/02 07:17:17;;;;;;;3.80;1.20;;;;;;;43.73;17.12;99767.41;5074523;28;20039;-76
2021/05/02 07:20:22;;;;;;;4.22;1.23;;;;;;;43.53;17.82;99766.50;5074132;28;20047;-75
2021/05/02 07:23:27;;;;;;;4.72;1.08;;;;;;;45.08;16.88;99764.13;5075068;28;20043;-77
2021/05/02 07:26:31;;;;;;;4.20;1.10;;;;;;;44.30;16.69;99763.78;5074188;28;20047;-76
2021/05/02 07:29:35;;;;;;;2.65;1.13;;;;;;;45.02;15.89;99762.78;5074769;28;20047;-75
2021/05/02 07:32:39;;;;;;;3.88;1.20;;;;;;;44.78;14.90;99760.31;5074995;28;20048;-74
2021/05/02 07:35:47;;;;;;;18.73;16.83;;;;;;;43.77;14.71;99766.28;5075054;28;20043;-77
2021/05/02 07:38:51;;;;;;;10.85;9.75;;;;;;;42.99;15.76;99757.88;5074194;28;20043;-75
2021/05/02 07:41:55;;;;;;;7.68;1.20;;;;;;;41.67;16.47;99762.06;5075176;28;20051;-77
2021/05/02 07:45:01;;;;;;;5.95;1.38;;;;;;;41.81;16.00;99762.50;5074700;28;20391;-76
2021/05/02 07:48:05;;;;;;;4.07;1.17;;;;;;;42.53;15.56;99761.44;5074611;28;20383;-76
2021/05/02 07:51:10;;;;;;;5.70;1.10;;;;;;;38.74;16.90;99757.38;5074666;28;20048;-77
2021/05/02 07:54:15;;;;;;;5.35;1.50;;;;;;;39.85;17.08;99763.59;5074609;28;20043;-77
2021/05/02 07:57:19;;;;;;;3.22;1.20;;;;;;;40.99;16.24;99758.19;5074586;28;20051;-76
2021/05/02 08:00:24;;;;;;;4.57;1.30;;;;;;;41.25;16.30;99769.94;5074477;28;20379;-75
2021/05/02 08:03:28;;;;;;;9.35;1.80;;;;;;;41.32;16.09;99768.19;5073665;28;20048;-77
2021/05/02 08:06:33;;;;;;;8.75;1.60;;;;;;;41.08;16.35;99782.25;5074399;28;20055;-76
2021/05/02 08:09:37;;;;;;;5.85;1.58;;;;;;;42.23;15.92;99783.56;5073268;28;20052;-76
2021/05/02 08:12:41;;;;;;;7.40;1.75;;;;;;;44.35;14.35;99794.63;5074235;28;20064;-76
2021/05/02 08:15:46;;;;;;;5.40;1.88;;;;;;;43.50;14.77;99797.53;5074110;28;20051;-77
2021/05/02 08:18:50;;;;;;;6.80;1.98;;;;;;;43.02;14.62;99801.53;5073176;28;20055;-77
2021/05/02 08:21:55;;;;;;;4.97;1.30;;;;;;;42.38;14.86;99801.72;5074145;28;20051;-76
2021/05/02 08:24:59;;;;;;;4.28;1.48;;;;;;;43.77;14.05;99805.91;5073821;28;20063;-77
2021/05/02 08:28:05;;;;;;;5.20;1.88;;;;;;;40.95;15.31;99805.94;5074055;28;20380;-76
2021/05/02 08:31:11;;;;;;;5.07;1.42;;;;;;;38.45;17.20;99807.75;5073750;28;20056;-77
2021/05/02 08:34:16;;;;;;;8.00;2.05;;;;;;;35.35;19.20;99805.47;5073778;28;20055;-77
2021/05/02 08:37:21;;;;;;;6.07;1.30;;;;;;;31.33;23.39;99818.28;5073975;28;20067;-77
2021/05/02 08:40:24;;;;;;;4.07;1.30;;;;;;;30.74;24.80;99813.41;5073315;28;20063;-74
2021/05/02 08:43:30;;;;;;;3.58;1.70;;;;;;;29.24;25.85;99820.31;5073281;28;20046;-76
2021/05/02 08:46:35;;;;;;;6.55;1.40;;;;;;;28.37;26.71;99822.69;5073968;28;20047;-79
2021/05/02 08:49:44;;;;;;;8.27;1.75;;;;;;;28.21;26.88;99829.19;5073864;28;20487;-75
2021/05/02 08:52:49;;;;;;;6.22;1.42;;;;;;;26.97;28.44;99828.22;5073737;28;20052;-77
2021/05/02 08:55:56;;;;;;;13.30;1.75;;;;;;;27.10;27.21;99828.69;5073799;28;20107;-78
2021/05/02 08:59:00;;;;;;;6.93;1.50;;;;;;;27.21;27.87;99840.66;5072972;28;20498;-77
2021/05/02 09:02:05;;;;;;;8.43;1.70;;;;;;;27.04;28.87;99856.41;5073739;28;20052;-77
2021/05/02 09:05:10;;;;;;;6.35;1.77;;;;;;;26.40;29.94;99842.19;5073670;28;20399;-78
2021/05/02 09:08:35;;;;;;;6.78;1.90;;;;;;;26.47;29.31;99850.25;5073672;28;20039;-75
2021/05/02 09:11:42;;;;;;;8.93;1.70;;;;;;;25.19;30.88;99858.16;5073702;28;20051;-75
2021/05/02 09:14:46;;;;;;;10.00;2.22;;;;;;;25.85;30.94;99865.88;5073640;28;20048;-77
2021/05/02 09:18:15;;;;;;;4.88;1.80;;;;;;;24.92;30.94;99859.75;5073645;28;20046;-77
2021/05/02 09:21:27;;;;;;;6.13;1.90;;;;;;;25.09;31.27;99866.19;5073604;28;20048;-76
2021/05/02 09:24:33;;;;;;;7.65;1.90;;;;;;;25.02;32.11;99880.06;5073500;28;20071;-75
2021/05/02 09:27:48;;;;;;;6.15;1.70;;;;;;;24.98;31.88;99878.88;5073531;28;20044;-76
2021/05/02 09:31:08;;;;;;;5.25;1.60;;;;;;;25.01;31.78;99881.13;5072673;28;20048;-78
2021/05/02 09:34:15;;;;;;;4.85;1.55;;;;;;;25.03;32.38;99879.00;5073169;28;20052;-78
2021/05/02 09:37:31;;;;;;;23.45;16.98;;;;;;;24.97;32.32;99881.84;5073457;28;20052;-77
2021/05/02 09:40:53;;;;;;;12.25;4.72;;;;;;;24.88;32.48;99889.63;5072003;28;20055;-77
2021/05/02 09:43:59;;;;;;;6.03;1.58;;;;;;;24.55;32.68;99901.13;5074100;28;20063;-78
2021/05/02 09:47:42;;;;;;;6.30;1.95;;;;;;;24.65;33.31;99889.56;5076166;28;20060;-78
2021/05/02 09:50:46;;;;;;;7.47;2.08;;;;;;;24.58;32.57;99884.19;5054924;28;20052;-78
2021/05/02 09:54:04;;;;;;;8.00;1.80;;;;;;;23.69;33.43;99895.19;5054584;28;20048;-77
2021/05/02 09:57:08;;;;;;;6.57;1.77;;;;;;;23.87;33.82;99902.56;5054766;28;20040;-77
2021/05/02 10:00:24;;;;;;;5.60;1.33;;;;;;;23.98;33.82;99903.66;5054501;28;20076;-78
2021/05/02 10:03:31;;;;;;;9.00;1.60;;;;;;;23.69;35.35;99900.69;5043393;28;20136;-77
2021/05/02 10:06:35;;;;;;;12.45;2.05;;;;;;;22.94;36.29;99901.06;5054572;28;20044;-77
2021/05/02 10:09:41;;;;;;;9.15;1.80;;;;;;;22.55;37.02;99905.81;5054565;28;20052;-78
2021/05/02 10:12:53;;;;;;;10.35;1.98;;;;;;;22.19;37.32;99902.94;5054498;28;20048;-78
2021/05/02 10:15:58;;;;;;;7.30;1.73;;;;;;;22.45;37.10;99905.47;5054403;28;20056;-78
2021/05/02 10:19:09;;;;;;;9.05;1.77;;;;;;;22.33;37.08;99907.25;5054384;28;20380;-78
2021/05/02 10:22:17;;;;;;;5.75;1.83;;;;;;;22.61;36.21;99906.84;5054374;28;20128;-77
2021/05/02 10:25:21;;;;;;;8.25;1.88;;;;;;;22.55;36.30;99911.28;5076285;28;20059;-76
2021/05/02 10:28:30;;;;;;;7.45;1.40;;;;;;;22.52;35.39;99910.88;5076307;28;20043;-78
2021/05/02 10:31:41;;;;;;;7.68;1.80;;;;;;;22.01;36.24;99906.41;5076318;28;20052;-77
2021/05/02 10:34:49;;;;;;;6.75;1.65;;;;;;;22.17;36.30;99904.22;5075322;28;20059;-78
2021/05/02 10:37:55;;;;;;;6.63;1.77;;;;;;;21.64;36.71;99909.09;5075042;28;20047;-77
2021/05/02 10:41:31;;;;;;;6.72;1.75;;;;;;;21.63;37.68;99908.25;5075432;28;20486;-77
2021/05/02 10:44:36;;;;;;;5.90;1.70;;;;;;;21.74;37.11;99906.72;5075883;28;20067;-77
2021/05/02 10:47:43;;;;;;;8.73;1.90;;;;;;;21.43;36.99;99896.56;5075844;28;20055;-78
2021/05/02 10:50:53;;;;;;;4.63;1.63;;;;;;;21.61;37.20;99895.84;5075896;28;20043;-77
2021/05/02 10:54:06;;;;;;;10.85;2.20;;;;;;;21.60;36.89;99895.03;5075545;28;20047;-78
2021/05/02 10:57:33;;;;;;;12.02;1.52;;;;;;;21.61;36.87;99893.13;5075694;28;20387;-75
2021/05/02 11:00:57;;;;;;;8.45;1.77;;;;;;;21.69;35.64;99895.63;5075700;28;20063;-76
2021/05/02 11:04:01;;;;;;;7.97;2.05;;;;;;;21.91;35.82;99888.81;5075349;28;20048;-77
2021/05/02 11:07:06;;;;;;;13.48;2.22;;;;;;;21.85;36.36;99895.97;5075447;28;20052;-75
2021/05/02 11:10:18;;;;;;;12.73;2.00;;;;;;;21.88;35.97;99894.69;5074601;28;20058;-76
2021/05/02 11:13:26;;;;;;;7.70;2.50;;;;;;;21.20;36.93;99896.22;5075405;28;20055;-75
2021/05/02 11:16:31;;;;;;;6.47;1.77;;;;;;;21.39;36.66;99907.09;5075045;28;20051;-77
2021/05/02 11:19:35;;;;;;;9.60;2.00;;;;;;;21.43;36.61;99920.31;5075133;28;20107;-78
2021/05/02 11:22:47;;;;;;;8.75;2.10;;;;;;;21.44;36.14;99911.06;5075179;28;20047;-77
2021/05/02 11:26:00;;;;;;;10.40;1.95;;;;;;;21.48;36.03;99904.94;5074800;28;20047;-78
2021/05/02 11:29:14;;;;;;;5.72;2.00;;;;;;;21.59;36.26;99914.38;5075095;28;20051;-75
2021/05/02 11:35:41;;;;;;;6.97;1.92;;;;;;;22.09;35.49;99910.78;5074600;28;20051;-76
2021/05/02 11:38:46;;;;;;;6.68;1.80;;;;;;;22.15;35.20;99911.78;5074580;28;20051;-77
2021/05/02 11:42:10;;;;;;;15.18;8.55;;;;;;;21.65;35.32;99905.31;5074616;28;20063;-75
2021/05/02 11:45:14;;;;;;;7.70;1.75;;;;;;;21.71;35.67;99915.34;5051201;28;20071;-77
2021/05/02 11:48:20;;;;;;;7.65;1.90;;;;;;;21.43;34.97;99914.84;5074478;28;20063;-77
2021/05/02 11:51:27;;;;;;;8.38;1.80;;;;;;;21.28;35.85;99905.00;5072795;28;20063;-75
2021/05/02 11:54:34;;;;;;;5.45;1.95;;;;;;;21.31;36.90;99909.19;5069601;28;20055;-76
2021/05/02 11:57:43;;;;;;;8.90;1.75;;;;;;;21.27;37.38;99910.69;5071776;28;20048;-76
2021/05/02 12:00:49;;;;;;;8.32;2.00;;;;;;;21.38;37.01;99919.06;5072690;28;20059;-75
2021/05/02 12:04:03;;;;;;;6.97;2.15;;;;;;;21.74;35.77;99925.84;5064742;28;20051;-77
2021/05/02 12:07:07;;;;;;;;;;;;;;;21.90;35.37;99928.13;5071702;28;20052;-75
2021/05/02 12:10:17;;;;;;;13.73;2.17;;;;;;;21.84;34.90;99924.34;5073831;28;19916;-75
2021/05/02 12:13:35;;;;;;;8.50;2.13;;;;;;;21.89;35.56;99930.03;5068518;28;20063;-76
2021/05/02 12:16:39;;;;;;;9.75;1.85;;;;;;;22.00;34.70;99925.75;5071152;28;20040;-76
2021/05/02 12:19:53;;;;;;;6.97;1.92;;;;;;;21.75;35.45;99928.38;5070100;28;20044;-73
2021/05/02 12:22:58;;;;;;;6.25;1.85;;;;;;;21.66;36.21;99926.94;5069569;28;20063;-75
2021/05/02 12:26:14;;;;;;;12.35;2.10;;;;;;;21.79;35.05;99934.25;5070840;28;20055;-74
2021/05/02 12:29:25;;;;;;;5.30;1.73;;;;;;;21.91;35.21;99938.84;5070515;28;20499;-79
2021/05/02 12:32:29;;;;;;;6.28;1.50;;;;;;;21.92;35.55;99940.50;5043778;28;20063;-78
2021/05/02 12:35:34;;;;;;;7.28;2.13;;;;;;;22.02;33.94;99935.41;5047445;28;20043;-75
2021/05/02 12:38:41;;;;;;;8.60;2.25;;;;;;;21.96;34.80;99940.91;5057686;28;20040;-77
2021/05/02 12:41:52;;;;;;;7.03;2.05;;;;;;;22.15;35.04;99937.22;5059009;28;20044;-78
2021/05/02 12:44:56;;;;;;;7.15;1.98;;;;;;;22.17;34.79;99940.56;5047858;28;20513;-75
2021/05/02 12:48:00;;;;;;;7.65;1.92;;;;;;;21.88;34.51;99939.28;5072213;28;20047;-81
2021/05/02 12:51:05;;;;;;;5.30;1.80;;;;;;;22.09;34.75;99946.31;5069855;28;21493;-77
2021/05/02 12:54:11;;;;;;;7.03;1.80;;;;;;;21.97;34.63;99943.41;5072377;28;20052;-79
2021/05/02 12:57:17;;;;;;;8.68;2.55;;;;;;;22.00;34.43;99939.41;5066776;28;20051;-77
2021/05/02 13:00:24;;;;;;;9.63;1.90;;;;;;;22.13;33.90;99938.50;5068973;28;20056;-79
2021/05/02 13:03:42;;;;;;;11.02;1.70;;;;;;;22.24;34.24;99943.28;5071988;28;20044;-80
2021/05/02 13:06:46;;;;;;;6.53;2.00;;;;;;;22.13;34.30;99939.34;5072499;28;20067;-79
2021/05/02 13:09:51;;;;;;;5.38;1.52;;;;;;;22.30;33.50;99945.97;5062625;28;20528;-79
2021/05/02 13:12:56;;;;;;;7.85;1.88;;;;;;;22.17;33.79;99937.03;5070412;28;20039;-80
2021/05/02 13:16:01;;;;;;;7.53;1.83;;;;;;;21.89;34.56;99943.69;5071231;28;20391;-77
2021/05/02 13:19:05;;;;;;;6.68;1.85;;;;;;;22.00;34.18;99942.16;5072447;28;20043;-81
2021/05/02 13:22:17;;;;;;;8.32;1.90;;;;;;;21.81;33.77;99943.91;5075454;28;20048;-82
2021/05/02 13:25:23;;;;;;;5.78;1.60;;;;;;;21.77;34.23;99945.41;5076087;28;20506;-80
2021/05/02 13:28:28;;;;;;;7.85;2.35;;;;;;;21.81;33.90;99940.31;5074095;28;20047;-80
2021/05/02 13:31:47;;;;;;;5.63;1.60;;;;;;;21.69;33.81;99942.06;5076920;28;20055;-80
2021/05/02 13:34:52;;;;;;;10.05;2.80;;;;;;;21.58;34.33;99935.38;5074566;28;20052;-80
2021/05/02 13:37:56;;;;;;;7.38;2.05;;;;;;;21.23;34.81;99939.50;5075715;28;20040;-75
2021/05/02 13:41:01;;;;;;;8.90;2.10;;;;;;;21.32;34.94;99943.66;5089494;28;20411;-75
2021/05/02 13:44:08;;;;;;;6.95;1.85;;;;;;;21.41;34.73;99936.91;5095171;28;20043;-79
2021/05/02 13:47:13;;;;;;;6.82;1.75;;;;;;;21.43;34.12;99931.25;5094340;28;20055;-79
2021/05/02 13:50:18;;;;;;;8.40;1.90;;;;;;;21.15;33.79;99920.59;5095188;28;20055;-79
2021/05/02 13:53:23;;;;;;;7.88;2.03;;;;;;;21.30;34.84;99919.31;5095469;28;20050;-77
2021/05/02 13:56:28;;;;;;;11.02;1.90;;;;;;;21.30;34.89;99927.50;5093228;28;20047;-76
2021/05/02 13:59:33;;;;;;;6.30;2.05;;;;;;;21.43;35.22;99933.97;5094481;28;20510;-75
2021/05/02 14:02:43;;;;;;;10.23;2.42;;;;;;;21.26;35.22;99939.88;5093464;28;20509;-77
2021/05/02 14:05:48;;;;;;;6.68;1.80;;;;;;;21.25;35.39;99932.75;5095738;28;20047;-78
2021/05/02 14:08:53;;;;;;;6.60;1.90;;;;;;;21.22;35.63;99933.19;5091541;28;20063;-77
2021/05/02 14:11:58;;;;;;;7.88;2.15;;;;;;;21.29;34.86;99930.44;5093791;28;20051;-78
2021/05/02 14:15:03;;;;;;;9.02;2.42;;;;;;;21.30;35.49;99935.69;5090909;28;20047;-74
2021/05/02 14:18:08;;;;;;;9.68;1.95;;;;;;;21.01;35.13;99943.47;5093343;28;20043;-77
2021/05/02 14:21:13;;;;;;;11.38;2.20;;;;;;;21.20;35.25;99934.44;5093848;28;20051;-77
2021/05/02 14:24:17;;;;;;;9.65;2.08;;;;;;;21.14;36.04;99936.13;5093743;28;20399;-75
2021/05/02 14:27:22;;;;;;;13.68;2.47;;;;;;;21.18;35.40;99948.28;5093980;28;20059;-77
2021/05/02 14:30:26;;;;;;;10.20;2.78;;;;;;;21.26;35.04;99953.53;5093022;28;20042;-79
2021/05/02 14:33:31;;;;;;;66.53;56.83;;;;;;;21.32;35.34;99944.50;5093706;28;20059;-76
2021/05/02 14:36:50;;;;;;;14.68;7.18;;;;;;;21.15;34.78;99956.94;5100464;28;20035;-75
2021/05/02 14:39:55;;;;;;;12.48;4.00;;;;;;;20.93;35.16;99955.44;5094801;28;20394;-78
2021/05/02 14:43:01;;;;;;;6.47;1.92;;;;;;;20.90;35.54;99961.31;5094494;28;20529;-76